sensor_id;sensor_type;location;lat;lon;timestamp;P1;durP1;ratioP1;P2;durP2;ratioP2
8407;SDS011;4241;48.452;9.216;2023-05-07T00:02:19;449.87;;;163.83;;
8407;SDS011;4241;48.452;9.216;2023-05-07T00:04:46;450.60;;;163.93;;
8407;SDS011;4241;48.452;9.216;2023-05-07T00:07:13;451.13;;;161.10;;
8407;SDS011;4241;48.452;9.216;2023-05-07T00:09:40;450.97;;;162.07;;
8407;SDS011;4241;48.452;9.216;2023-05-07T00:12:07;452.67;;;165.60;;
8407;SDS011;4241;48.452;9.216;2023-05-07T00:14:34;452.40;;;163.37;;
8407;SDS011;4241;48.452;9.216;2023-05-07T00:17:01;450.37;;;164.40;;
8407;SDS011;4241;48.452;9.216;2023-05-07T00:19:29;451.90;;;165.43;;
8407;SDS011;4241;48.452;9.216;2023-05-07T00:21:56;451.87;;;166.93;;
8407;SDS011;4241;48.452;9.216;2023-05-07T00:24:23;452.10;;;164.00;;
8407;SDS011;4241;48.452;9.216;2023-05-07T00:26:50;452.10;;;166.07;;
8407;SDS011;4241;48.452;9.216;2023-05-07T00:29:17;451.77;;;164.13;;
8407;SDS011;4241;48.452;9.216;2023-05-07T00:31:44;453.33;;;168.63;;
8407;SDS011;4241;48.452;9.216;2023-05-07T00:34:11;451.40;;;162.97;;
8407;SDS011;4241;48.452;9.216;2023-05-07T00:36:39;451.23;;;164.30;;
8407;SDS011;4241;48.452;9.216;2023-05-07T00:39:06;450.97;;;162.73;;
8407;SDS011;4241;48.452;9.216;2023-05-07T00:41:33;452.23;;;163.90;;
8407;SDS011;4241;48.452;9.216;2023-05-07T00:44:00;449.63;;;160.80;;
8407;SDS011;4241;48.452;9.216;2023-05-07T00:46:27;451.40;;;164.67;;
8407;SDS011;4241;48.452;9.216;2023-05-07T00:48:56;451.20;;;160.87;;
8407;SDS011;4241;48.452;9.216;2023-05-07T00:51:23;449.43;;;159.70;;
8407;SDS011;4241;48.452;9.216;2023-05-07T00:53:54;451.30;;;163.63;;
8407;SDS011;4241;48.452;9.216;2023-05-07T00:56:21;452.83;;;164.67;;
8407;SDS011;4241;48.452;9.216;2023-05-07T00:58:48;450.63;;;162.40;;
8407;SDS011;4241;48.452;9.216;2023-05-07T01:01:15;452.60;;;166.00;;
8407;SDS011;4241;48.452;9.216;2023-05-07T01:03:43;452.80;;;162.10;;
8407;SDS011;4241;48.452;9.216;2023-05-07T01:06:09;449.80;;;159.20;;
8407;SDS011;4241;48.452;9.216;2023-05-07T01:08:41;450.47;;;159.97;;
8407;SDS011;4241;48.452;9.216;2023-05-07T01:11:10;451.23;;;161.00;;
8407;SDS011;4241;48.452;9.216;2023-05-07T01:13:37;451.47;;;162.57;;
8407;SDS011;4241;48.452;9.216;2023-05-07T01:16:05;450.03;;;161.17;;
8407;SDS011;4241;48.452;9.216;2023-05-07T01:18:32;451.53;;;162.13;;
8407;SDS011;4241;48.452;9.216;2023-05-07T01:21:00;448.73;;;159.37;;
8407;SDS011;4241;48.452;9.216;2023-05-07T01:23:31;448.93;;;155.87;;
8407;SDS011;4241;48.452;9.216;2023-05-07T01:26:00;448.70;;;154.97;;
8407;SDS011;4241;48.452;9.216;2023-05-07T01:28:27;447.40;;;155.07;;
8407;SDS011;4241;48.452;9.216;2023-05-07T01:30:54;447.57;;;155.37;;
8407;SDS011;4241;48.452;9.216;2023-05-07T01:33:27;449.67;;;157.07;;
8407;SDS011;4241;48.452;9.216;2023-05-07T01:35:57;452.50;;;157.97;;
8407;SDS011;4241;48.452;9.216;2023-05-07T01:38:25;445.40;;;150.97;;
8407;SDS011;4241;48.452;9.216;2023-05-07T01:40:54;445.53;;;152.50;;
8407;SDS011;4241;48.452;9.216;2023-05-07T01:43:22;446.10;;;150.80;;
8407;SDS011;4241;48.452;9.216;2023-05-07T01:45:49;443.83;;;149.83;;
8407;SDS011;4241;48.452;9.216;2023-05-07T01:48:16;446.40;;;153.27;;
8407;SDS011;4241;48.452;9.216;2023-05-07T01:50:43;449.77;;;155.60;;
8407;SDS011;4241;48.452;9.216;2023-05-07T01:53:11;446.83;;;150.87;;
8407;SDS011;4241;48.452;9.216;2023-05-07T01:55:38;445.43;;;149.80;;
8407;SDS011;4241;48.452;9.216;2023-05-07T01:58:06;444.57;;;150.53;;
8407;SDS011;4241;48.452;9.216;2023-05-07T02:00:33;443.97;;;152.33;;
8407;SDS011;4241;48.452;9.216;2023-05-07T02:03:00;444.47;;;148.77;;
8407;SDS011;4241;48.452;9.216;2023-05-07T02:05:26;452.27;;;157.77;;
8407;SDS011;4241;48.452;9.216;2023-05-07T02:07:53;445.90;;;151.57;;
8407;SDS011;4241;48.452;9.216;2023-05-07T02:10:20;442.50;;;147.37;;
8407;SDS011;4241;48.452;9.216;2023-05-07T02:12:47;445.13;;;151.83;;
8407;SDS011;4241;48.452;9.216;2023-05-07T02:15:16;446.80;;;152.70;;
8407;SDS011;4241;48.452;9.216;2023-05-07T02:17:57;444.60;;;150.07;;
8407;SDS011;4241;48.452;9.216;2023-05-07T02:20:25;441.20;;;145.53;;
8407;SDS011;4241;48.452;9.216;2023-05-07T02:22:52;443.53;;;148.57;;
8407;SDS011;4241;48.452;9.216;2023-05-07T02:25:18;443.80;;;148.30;;
8407;SDS011;4241;48.452;9.216;2023-05-07T02:27:45;441.27;;;146.50;;
8407;SDS011;4241;48.452;9.216;2023-05-07T02:30:13;445.70;;;149.83;;
8407;SDS011;4241;48.452;9.216;2023-05-07T02:32:41;443.47;;;147.93;;
8407;SDS011;4241;48.452;9.216;2023-05-07T02:35:08;442.87;;;146.63;;
8407;SDS011;4241;48.452;9.216;2023-05-07T02:37:35;443.13;;;147.90;;
8407;SDS011;4241;48.452;9.216;2023-05-07T02:40:02;442.80;;;147.63;;
8407;SDS011;4241;48.452;9.216;2023-05-07T02:42:29;442.33;;;147.37;;
8407;SDS011;4241;48.452;9.216;2023-05-07T02:44:56;447.73;;;153.47;;
8407;SDS011;4241;48.452;9.216;2023-05-07T02:47:23;442.93;;;145.27;;
8407;SDS011;4241;48.452;9.216;2023-05-07T02:49:53;442.00;;;146.00;;
8407;SDS011;4241;48.452;9.216;2023-05-07T02:52:20;443.00;;;147.00;;
8407;SDS011;4241;48.452;9.216;2023-05-07T02:54:46;443.07;;;147.10;;
8407;SDS011;4241;48.452;9.216;2023-05-07T02:57:14;444.43;;;147.53;;
8407;SDS011;4241;48.452;9.216;2023-05-07T02:59:41;439.20;;;143.37;;
8407;SDS011;4241;48.452;9.216;2023-05-07T03:02:08;441.80;;;145.13;;
8407;SDS011;4241;48.452;9.216;2023-05-07T03:04:35;442.00;;;146.07;;
8407;SDS011;4241;48.452;9.216;2023-05-07T03:07:03;441.80;;;144.67;;
8407;SDS011;4241;48.452;9.216;2023-05-07T03:09:30;443.37;;;147.40;;
8407;SDS011;4241;48.452;9.216;2023-05-07T03:11:57;443.20;;;147.00;;
8407;SDS011;4241;48.452;9.216;2023-05-07T03:14:24;442.73;;;145.90;;
8407;SDS011;4241;48.452;9.216;2023-05-07T03:16:51;443.20;;;146.10;;
8407;SDS011;4241;48.452;9.216;2023-05-07T03:19:18;443.73;;;147.13;;
8407;SDS011;4241;48.452;9.216;2023-05-07T03:21:45;443.03;;;147.60;;
8407;SDS011;4241;48.452;9.216;2023-05-07T03:24:14;442.70;;;146.17;;
8407;SDS011;4241;48.452;9.216;2023-05-07T03:26:41;442.93;;;145.20;;
8407;SDS011;4241;48.452;9.216;2023-05-07T03:29:08;443.47;;;146.40;;
8407;SDS011;4241;48.452;9.216;2023-05-07T03:31:35;442.97;;;146.37;;
8407;SDS011;4241;48.452;9.216;2023-05-07T03:34:02;441.97;;;143.43;;
8407;SDS011;4241;48.452;9.216;2023-05-07T03:36:29;440.87;;;143.13;;
8407;SDS011;4241;48.452;9.216;2023-05-07T03:38:56;442.57;;;146.17;;
8407;SDS011;4241;48.452;9.216;2023-05-07T03:41:25;440.87;;;143.70;;
8407;SDS011;4241;48.452;9.216;2023-05-07T03:43:52;440.13;;;145.03;;
8407;SDS011;4241;48.452;9.216;2023-05-07T03:46:19;441.27;;;146.03;;
8407;SDS011;4241;48.452;9.216;2023-05-07T03:48:46;439.70;;;141.67;;
8407;SDS011;4241;48.452;9.216;2023-05-07T03:51:13;439.27;;;142.50;;
8407;SDS011;4241;48.452;9.216;2023-05-07T03:53:40;439.90;;;142.70;;
8407;SDS011;4241;48.452;9.216;2023-05-07T03:56:07;438.37;;;140.73;;
8407;SDS011;4241;48.452;9.216;2023-05-07T03:58:35;441.03;;;143.53;;
8407;SDS011;4241;48.452;9.216;2023-05-07T04:01:02;440.43;;;142.67;;
8407;SDS011;4241;48.452;9.216;2023-05-07T04:03:29;439.27;;;142.17;;
8407;SDS011;4241;48.452;9.216;2023-05-07T04:05:56;437.20;;;138.87;;
8407;SDS011;4241;48.452;9.216;2023-05-07T04:08:23;439.30;;;140.33;;
8407;SDS011;4241;48.452;9.216;2023-05-07T04:10:54;437.00;;;138.77;;
8407;SDS011;4241;48.452;9.216;2023-05-07T04:13:21;438.87;;;141.20;;
8407;SDS011;4241;48.452;9.216;2023-05-07T04:15:49;440.73;;;144.37;;
8407;SDS011;4241;48.452;9.216;2023-05-07T04:18:17;435.83;;;137.70;;
8407;SDS011;4241;48.452;9.216;2023-05-07T04:20:45;441.07;;;142.70;;
8407;SDS011;4241;48.452;9.216;2023-05-07T04:23:11;437.20;;;137.50;;
8407;SDS011;4241;48.452;9.216;2023-05-07T04:25:38;443.50;;;145.87;;
8407;SDS011;4241;48.452;9.216;2023-05-07T04:28:06;438.87;;;140.53;;
8407;SDS011;4241;48.452;9.216;2023-05-07T04:30:33;439.73;;;141.20;;
8407;SDS011;4241;48.452;9.216;2023-05-07T04:33:01;438.73;;;141.53;;
8407;SDS011;4241;48.452;9.216;2023-05-07T04:35:28;440.53;;;143.73;;
8407;SDS011;4241;48.452;9.216;2023-05-07T04:37:55;433.20;;;136.27;;
8407;SDS011;4241;48.452;9.216;2023-05-07T04:40:22;435.37;;;137.57;;
8407;SDS011;4241;48.452;9.216;2023-05-07T04:42:49;436.70;;;139.27;;
8407;SDS011;4241;48.452;9.216;2023-05-07T04:45:16;437.60;;;141.67;;
8407;SDS011;4241;48.452;9.216;2023-05-07T04:47:43;440.27;;;141.83;;
8407;SDS011;4241;48.452;9.216;2023-05-07T04:50:11;438.93;;;141.57;;
8407;SDS011;4241;48.452;9.216;2023-05-07T04:52:38;436.73;;;139.47;;
8407;SDS011;4241;48.452;9.216;2023-05-07T04:55:05;438.67;;;140.83;;
8407;SDS011;4241;48.452;9.216;2023-05-07T04:57:32;438.53;;;141.40;;
8407;SDS011;4241;48.452;9.216;2023-05-07T04:59:59;439.43;;;141.70;;
8407;SDS011;4241;48.452;9.216;2023-05-07T05:02:26;434.53;;;136.83;;
8407;SDS011;4241;48.452;9.216;2023-05-07T05:04:53;438.77;;;141.73;;
8407;SDS011;4241;48.452;9.216;2023-05-07T05:07:21;437.40;;;139.90;;
8407;SDS011;4241;48.452;9.216;2023-05-07T05:09:47;439.70;;;144.00;;
8407;SDS011;4241;48.452;9.216;2023-05-07T05:12:14;439.00;;;142.37;;
8407;SDS011;4241;48.452;9.216;2023-05-07T05:14:41;436.73;;;139.97;;
8407;SDS011;4241;48.452;9.216;2023-05-07T05:17:08;440.60;;;144.50;;
8407;SDS011;4241;48.452;9.216;2023-05-07T05:19:34;438.53;;;141.97;;
8407;SDS011;4241;48.452;9.216;2023-05-07T05:22:01;440.37;;;145.67;;
8407;SDS011;4241;48.452;9.216;2023-05-07T05:24:30;439.67;;;142.87;;
8407;SDS011;4241;48.452;9.216;2023-05-07T05:26:57;439.53;;;142.00;;
8407;SDS011;4241;48.452;9.216;2023-05-07T05:29:25;438.93;;;142.07;;
8407;SDS011;4241;48.452;9.216;2023-05-07T05:31:51;440.93;;;145.10;;
8407;SDS011;4241;48.452;9.216;2023-05-07T05:34:18;438.60;;;142.70;;
8407;SDS011;4241;48.452;9.216;2023-05-07T05:36:45;440.10;;;144.10;;
8407;SDS011;4241;48.452;9.216;2023-05-07T05:39:12;441.20;;;145.67;;
8407;SDS011;4241;48.452;9.216;2023-05-07T05:41:40;441.50;;;145.27;;
8407;SDS011;4241;48.452;9.216;2023-05-07T05:44:07;444.00;;;150.43;;
8407;SDS011;4241;48.452;9.216;2023-05-07T05:46:34;443.17;;;147.73;;
8407;SDS011;4241;48.452;9.216;2023-05-07T05:49:01;441.80;;;147.47;;
8407;SDS011;4241;48.452;9.216;2023-05-07T05:51:28;443.87;;;148.43;;
8407;SDS011;4241;48.452;9.216;2023-05-07T05:53:55;445.20;;;149.47;;
8407;SDS011;4241;48.452;9.216;2023-05-07T05:56:22;444.47;;;149.33;;
8407;SDS011;4241;48.452;9.216;2023-05-07T05:58:52;444.63;;;150.87;;
8407;SDS011;4241;48.452;9.216;2023-05-07T06:01:18;442.97;;;150.00;;
8407;SDS011;4241;48.452;9.216;2023-05-07T06:03:46;445.97;;;152.03;;
8407;SDS011;4241;48.452;9.216;2023-05-07T06:06:13;445.60;;;151.83;;
8407;SDS011;4241;48.452;9.216;2023-05-07T06:08:40;447.33;;;153.00;;
8407;SDS011;4241;48.452;9.216;2023-05-07T06:11:07;447.40;;;155.10;;
8407;SDS011;4241;48.452;9.216;2023-05-07T06:13:34;448.13;;;156.00;;
8407;SDS011;4241;48.452;9.216;2023-05-07T06:16:03;449.53;;;157.97;;
8407;SDS011;4241;48.452;9.216;2023-05-07T06:18:30;448.30;;;158.43;;
8407;SDS011;4241;48.452;9.216;2023-05-07T06:20:57;453.70;;;164.73;;
8407;SDS011;4241;48.452;9.216;2023-05-07T06:23:24;449.53;;;159.50;;
8407;SDS011;4241;48.452;9.216;2023-05-07T06:25:51;451.57;;;163.17;;
8407;SDS011;4241;48.452;9.216;2023-05-07T06:28:18;449.17;;;160.03;;
8407;SDS011;4241;48.452;9.216;2023-05-07T06:30:45;450.87;;;162.63;;
8407;SDS011;4241;48.452;9.216;2023-05-07T06:33:13;449.67;;;164.17;;
8407;SDS011;4241;48.452;9.216;2023-05-07T06:35:40;452.40;;;169.30;;
8407;SDS011;4241;48.452;9.216;2023-05-07T06:38:07;452.90;;;167.40;;
8407;SDS011;4241;48.452;9.216;2023-05-07T06:40:34;453.53;;;167.87;;
8407;SDS011;4241;48.452;9.216;2023-05-07T06:43:00;448.53;;;162.40;;
8407;SDS011;4241;48.452;9.216;2023-05-07T06:45:27;456.27;;;172.40;;
8407;SDS011;4241;48.452;9.216;2023-05-07T06:47:54;450.50;;;166.33;;
8407;SDS011;4241;48.452;9.216;2023-05-07T06:50:23;455.37;;;173.60;;
8407;SDS011;4241;48.452;9.216;2023-05-07T06:52:49;458.57;;;176.40;;
8407;SDS011;4241;48.452;9.216;2023-05-07T06:55:16;455.20;;;173.67;;
8407;SDS011;4241;48.452;9.216;2023-05-07T06:57:44;453.33;;;169.63;;
8407;SDS011;4241;48.452;9.216;2023-05-07T07:00:11;455.07;;;173.87;;
8407;SDS011;4241;48.452;9.216;2023-05-07T07:02:39;455.57;;;176.27;;
8407;SDS011;4241;48.452;9.216;2023-05-07T07:05:06;456.00;;;175.80;;
8407;SDS011;4241;48.452;9.216;2023-05-07T07:07:35;455.37;;;175.43;;
8407;SDS011;4241;48.452;9.216;2023-05-07T07:10:01;461.43;;;184.40;;
8407;SDS011;4241;48.452;9.216;2023-05-07T07:12:29;455.57;;;176.83;;
8407;SDS011;4241;48.452;9.216;2023-05-07T07:14:56;459.20;;;183.93;;
8407;SDS011;4241;48.452;9.216;2023-05-07T07:17:23;460.17;;;184.30;;
8407;SDS011;4241;48.452;9.216;2023-05-07T07:19:50;460.30;;;187.17;;
8407;SDS011;4241;48.452;9.216;2023-05-07T07:22:16;459.57;;;185.17;;
8407;SDS011;4241;48.452;9.216;2023-05-07T07:24:45;462.20;;;190.13;;
8407;SDS011;4241;48.452;9.216;2023-05-07T07:27:11;465.53;;;194.07;;
8407;SDS011;4241;48.452;9.216;2023-05-07T07:29:38;461.90;;;192.07;;
8407;SDS011;4241;48.452;9.216;2023-05-07T07:32:05;462.97;;;193.97;;
8407;SDS011;4241;48.452;9.216;2023-05-07T07:34:32;464.87;;;199.97;;
8407;SDS011;4241;48.452;9.216;2023-05-07T07:36:59;463.83;;;198.57;;
8407;SDS011;4241;48.452;9.216;2023-05-07T07:39:30;464.17;;;202.73;;
8407;SDS011;4241;48.452;9.216;2023-05-07T07:41:58;467.53;;;208.57;;
8407;SDS011;4241;48.452;9.216;2023-05-07T07:44:25;467.03;;;208.37;;
8407;SDS011;4241;48.452;9.216;2023-05-07T07:46:52;467.37;;;210.37;;
8407;SDS011;4241;48.452;9.216;2023-05-07T07:49:19;471.27;;;218.57;;
8407;SDS011;4241;48.452;9.216;2023-05-07T07:51:47;469.27;;;217.43;;
8407;SDS011;4241;48.452;9.216;2023-05-07T07:54:14;472.77;;;221.10;;
8407;SDS011;4241;48.452;9.216;2023-05-07T07:56:41;468.57;;;217.23;;
8407;SDS011;4241;48.452;9.216;2023-05-07T07:59:09;469.37;;;215.37;;
8407;SDS011;4241;48.452;9.216;2023-05-07T08:01:36;466.87;;;210.60;;
8407;SDS011;4241;48.452;9.216;2023-05-07T08:04:03;467.83;;;211.53;;
8407;SDS011;4241;48.452;9.216;2023-05-07T08:06:31;467.43;;;213.20;;
8407;SDS011;4241;48.452;9.216;2023-05-07T08:08:58;466.37;;;212.77;;
8407;SDS011;4241;48.452;9.216;2023-05-07T08:11:25;467.13;;;210.70;;
8407;SDS011;4241;48.452;9.216;2023-05-07T08:13:52;467.00;;;214.17;;
8407;SDS011;4241;48.452;9.216;2023-05-07T08:16:21;468.57;;;220.60;;
8407;SDS011;4241;48.452;9.216;2023-05-07T08:18:48;467.23;;;217.03;;
8407;SDS011;4241;48.452;9.216;2023-05-07T08:21:15;469.03;;;218.90;;
8407;SDS011;4241;48.452;9.216;2023-05-07T08:23:42;466.93;;;216.77;;
8407;SDS011;4241;48.452;9.216;2023-05-07T08:26:09;469.00;;;219.10;;
8407;SDS011;4241;48.452;9.216;2023-05-07T08:28:36;468.07;;;215.53;;
8407;SDS011;4241;48.452;9.216;2023-05-07T08:31:04;465.17;;;211.50;;
8407;SDS011;4241;48.452;9.216;2023-05-07T08:33:34;468.63;;;214.17;;
8407;SDS011;4241;48.452;9.216;2023-05-07T08:36:01;466.63;;;211.53;;
8407;SDS011;4241;48.452;9.216;2023-05-07T08:38:27;463.63;;;208.90;;
8407;SDS011;4241;48.452;9.216;2023-05-07T08:40:55;465.53;;;207.53;;
8407;SDS011;4241;48.452;9.216;2023-05-07T08:43:22;462.97;;;204.43;;
8407;SDS011;4241;48.452;9.216;2023-05-07T08:45:53;467.67;;;208.17;;
8407;SDS011;4241;48.452;9.216;2023-05-07T08:48:21;465.70;;;204.20;;
8407;SDS011;4241;48.452;9.216;2023-05-07T08:50:52;461.93;;;200.43;;
8407;SDS011;4241;48.452;9.216;2023-05-07T08:53:19;467.37;;;205.60;;
8407;SDS011;4241;48.452;9.216;2023-05-07T08:55:47;467.93;;;206.90;;
8407;SDS011;4241;48.452;9.216;2023-05-07T08:58:14;462.90;;;198.93;;
8407;SDS011;4241;48.452;9.216;2023-05-07T09:00:41;466.77;;;205.00;;
8407;SDS011;4241;48.452;9.216;2023-05-07T09:03:08;465.37;;;210.37;;
8407;SDS011;4241;48.452;9.216;2023-05-07T09:05:37;465.50;;;208.03;;
8407;SDS011;4241;48.452;9.216;2023-05-07T09:08:08;467.20;;;209.57;;
8407;SDS011;4241;48.452;9.216;2023-05-07T09:10:34;466.73;;;213.87;;
8407;SDS011;4241;48.452;9.216;2023-05-07T09:13:02;469.60;;;222.00;;
8407;SDS011;4241;48.452;9.216;2023-05-07T09:15:29;481.33;;;238.47;;
8407;SDS011;4241;48.452;9.216;2023-05-07T09:17:59;472.40;;;230.70;;
8407;SDS011;4241;48.452;9.216;2023-05-07T09:20:27;473.40;;;235.40;;
8407;SDS011;4241;48.452;9.216;2023-05-07T09:22:55;479.27;;;244.90;;
8407;SDS011;4241;48.452;9.216;2023-05-07T09:25:28;479.80;;;251.13;;
8407;SDS011;4241;48.452;9.216;2023-05-07T09:27:56;475.17;;;247.23;;
8407;SDS011;4241;48.452;9.216;2023-05-07T09:30:23;474.80;;;250.50;;
8407;SDS011;4241;48.452;9.216;2023-05-07T09:32:54;477.37;;;253.63;;
8407;SDS011;4241;48.452;9.216;2023-05-07T09:35:21;482.13;;;261.20;;
8407;SDS011;4241;48.452;9.216;2023-05-07T09:37:49;480.17;;;261.17;;
8407;SDS011;4241;48.452;9.216;2023-05-07T09:40:22;484.03;;;270.20;;
8407;SDS011;4241;48.452;9.216;2023-05-07T09:42:51;482.27;;;269.17;;
8407;SDS011;4241;48.452;9.216;2023-05-07T09:45:21;486.37;;;275.33;;
8407;SDS011;4241;48.452;9.216;2023-05-07T09:47:49;484.53;;;276.80;;
8407;SDS011;4241;48.452;9.216;2023-05-07T09:50:22;485.30;;;284.20;;
8407;SDS011;4241;48.452;9.216;2023-05-07T09:52:52;485.60;;;283.23;;
8407;SDS011;4241;48.452;9.216;2023-05-07T09:55:20;486.67;;;282.10;;
8407;SDS011;4241;48.452;9.216;2023-05-07T09:57:48;487.73;;;287.70;;
8407;SDS011;4241;48.452;9.216;2023-05-07T10:00:19;486.47;;;280.87;;
8407;SDS011;4241;48.452;9.216;2023-05-07T10:02:47;486.10;;;279.90;;
8407;SDS011;4241;48.452;9.216;2023-05-07T10:05:17;486.93;;;278.83;;
8407;SDS011;4241;48.452;9.216;2023-05-07T10:07:45;484.20;;;276.60;;
8407;SDS011;4241;48.452;9.216;2023-05-07T10:10:13;488.50;;;282.83;;
8407;SDS011;4241;48.452;9.216;2023-05-07T10:12:41;488.17;;;287.77;;
8407;SDS011;4241;48.452;9.216;2023-05-07T10:15:09;493.47;;;293.20;;
8407;SDS011;4241;48.452;9.216;2023-05-07T10:17:37;492.57;;;294.73;;
8407;SDS011;4241;48.452;9.216;2023-05-07T10:20:05;489.77;;;288.40;;
8407;SDS011;4241;48.452;9.216;2023-05-07T10:22:36;492.07;;;299.83;;
8407;SDS011;4241;48.452;9.216;2023-05-07T10:25:05;486.60;;;286.23;;
8407;SDS011;4241;48.452;9.216;2023-05-07T10:27:38;486.47;;;285.33;;
8407;SDS011;4241;48.452;9.216;2023-05-07T10:30:07;496.47;;;304.70;;
8407;SDS011;4241;48.452;9.216;2023-05-07T10:32:47;489.23;;;292.10;;
8407;SDS011;4241;48.452;9.216;2023-05-07T10:35:17;488.33;;;293.27;;
8407;SDS011;4241;48.452;9.216;2023-05-07T10:37:47;489.37;;;292.43;;
8407;SDS011;4241;48.452;9.216;2023-05-07T10:40:14;493.73;;;296.50;;
8407;SDS011;4241;48.452;9.216;2023-05-07T10:45:26;486.70;;;285.13;;
8407;SDS011;4241;48.452;9.216;2023-05-07T10:48:07;487.27;;;282.67;;
8407;SDS011;4241;48.452;9.216;2023-05-07T10:50:35;486.47;;;281.43;;
8407;SDS011;4241;48.452;9.216;2023-05-07T10:53:21;488.13;;;282.13;;
8407;SDS011;4241;48.452;9.216;2023-05-07T10:58:54;482.53;;;265.20;;
8407;SDS011;4241;48.452;9.216;2023-05-07T11:04:18;481.70;;;262.97;;
8407;SDS011;4241;48.452;9.216;2023-05-07T11:09:59;484.20;;;266.03;;
8407;SDS011;4241;48.452;9.216;2023-05-07T11:12:49;481.97;;;261.47;;
8407;SDS011;4241;48.452;9.216;2023-05-07T11:18:04;484.97;;;264.93;;
8407;SDS011;4241;48.452;9.216;2023-05-07T11:20:47;482.43;;;262.70;;
8407;SDS011;4241;48.452;9.216;2023-05-07T11:26:26;482.60;;;259.83;;
8407;SDS011;4241;48.452;9.216;2023-05-07T11:28:54;479.83;;;255.63;;
8407;SDS011;4241;48.452;9.216;2023-05-07T11:31:22;480.27;;;254.70;;
8407;SDS011;4241;48.452;9.216;2023-05-07T11:33:52;481.50;;;259.17;;
8407;SDS011;4241;48.452;9.216;2023-05-07T11:36:21;480.87;;;257.63;;
8407;SDS011;4241;48.452;9.216;2023-05-07T11:38:49;483.23;;;262.67;;
8407;SDS011;4241;48.452;9.216;2023-05-07T11:41:16;482.20;;;260.00;;
8407;SDS011;4241;48.452;9.216;2023-05-07T11:43:57;482.17;;;265.60;;
8407;SDS011;4241;48.452;9.216;2023-05-07T11:46:26;485.20;;;271.47;;
8407;SDS011;4241;48.452;9.216;2023-05-07T11:48:54;484.63;;;266.40;;
8407;SDS011;4241;48.452;9.216;2023-05-07T11:51:22;485.03;;;271.63;;
8407;SDS011;4241;48.452;9.216;2023-05-07T11:53:51;484.07;;;267.67;;
8407;SDS011;4241;48.452;9.216;2023-05-07T11:56:19;482.27;;;264.37;;
8407;SDS011;4241;48.452;9.216;2023-05-07T11:58:46;481.73;;;264.53;;
8407;SDS011;4241;48.452;9.216;2023-05-07T12:01:15;483.40;;;265.93;;
8407;SDS011;4241;48.452;9.216;2023-05-07T12:03:43;482.47;;;262.27;;
8407;SDS011;4241;48.452;9.216;2023-05-07T12:06:12;481.47;;;260.33;;
8407;SDS011;4241;48.452;9.216;2023-05-07T12:08:41;481.30;;;257.43;;
8407;SDS011;4241;48.452;9.216;2023-05-07T12:11:09;484.00;;;259.97;;
8407;SDS011;4241;48.452;9.216;2023-05-07T12:13:38;479.73;;;253.33;;
8407;SDS011;4241;48.452;9.216;2023-05-07T12:16:05;481.23;;;253.63;;
8407;SDS011;4241;48.452;9.216;2023-05-07T12:18:33;481.30;;;250.20;;
8407;SDS011;4241;48.452;9.216;2023-05-07T12:21:02;481.70;;;253.47;;
8407;SDS011;4241;48.452;9.216;2023-05-07T12:23:32;479.30;;;242.67;;
8407;SDS011;4241;48.452;9.216;2023-05-07T12:26:00;479.47;;;239.97;;
8407;SDS011;4241;48.452;9.216;2023-05-07T12:28:27;477.03;;;236.60;;
8407;SDS011;4241;48.452;9.216;2023-05-07T12:30:55;477.80;;;237.03;;
8407;SDS011;4241;48.452;9.216;2023-05-07T12:33:24;479.10;;;238.50;;
8407;SDS011;4241;48.452;9.216;2023-05-07T12:35:53;477.30;;;234.57;;
8407;SDS011;4241;48.452;9.216;2023-05-07T12:38:21;480.20;;;235.80;;
8407;SDS011;4241;48.452;9.216;2023-05-07T12:40:50;480.77;;;234.63;;
8407;SDS011;4241;48.452;9.216;2023-05-07T12:43:20;480.80;;;232.07;;
8407;SDS011;4241;48.452;9.216;2023-05-07T12:45:48;478.30;;;227.97;;
8407;SDS011;4241;48.452;9.216;2023-05-07T12:48:16;481.97;;;230.47;;
8407;SDS011;4241;48.452;9.216;2023-05-07T12:50:45;476.77;;;228.27;;
8407;SDS011;4241;48.452;9.216;2023-05-07T12:53:14;478.63;;;224.63;;
8407;SDS011;4241;48.452;9.216;2023-05-07T12:55:42;479.53;;;223.23;;
8407;SDS011;4241;48.452;9.216;2023-05-07T12:58:15;478.60;;;226.30;;
8407;SDS011;4241;48.452;9.216;2023-05-07T13:00:43;482.87;;;224.90;;
8407;SDS011;4241;48.452;9.216;2023-05-07T13:03:10;475.93;;;218.50;;
8407;SDS011;4241;48.452;9.216;2023-05-07T13:05:37;480.50;;;224.00;;
8407;SDS011;4241;48.452;9.216;2023-05-07T13:08:05;473.23;;;215.17;;
8407;SDS011;4241;48.452;9.216;2023-05-07T13:10:34;474.17;;;215.40;;
8407;SDS011;4241;48.452;9.216;2023-05-07T13:13:01;476.40;;;219.90;;
8407;SDS011;4241;48.452;9.216;2023-05-07T13:15:30;476.90;;;217.83;;
8407;SDS011;4241;48.452;9.216;2023-05-07T13:17:56;474.27;;;208.93;;
8407;SDS011;4241;48.452;9.216;2023-05-07T13:20:23;468.57;;;203.23;;
8407;SDS011;4241;48.452;9.216;2023-05-07T13:22:50;470.63;;;201.60;;
8407;SDS011;4241;48.452;9.216;2023-05-07T13:25:17;465.07;;;192.03;;
8407;SDS011;4241;48.452;9.216;2023-05-07T13:27:44;467.43;;;193.67;;
8407;SDS011;4241;48.452;9.216;2023-05-07T13:30:12;486.37;;;210.27;;
8407;SDS011;4241;48.452;9.216;2023-05-07T13:32:40;466.80;;;187.03;;
8407;SDS011;4241;48.452;9.216;2023-05-07T13:35:07;466.87;;;185.77;;
8407;SDS011;4241;48.452;9.216;2023-05-07T13:37:34;464.53;;;184.33;;
8407;SDS011;4241;48.452;9.216;2023-05-07T13:40:01;464.13;;;181.13;;
8407;SDS011;4241;48.452;9.216;2023-05-07T13:42:28;460.67;;;177.77;;
8407;SDS011;4241;48.452;9.216;2023-05-07T13:44:55;459.23;;;173.33;;
8407;SDS011;4241;48.452;9.216;2023-05-07T13:47:22;467.83;;;183.47;;
8407;SDS011;4241;48.452;9.216;2023-05-07T13:49:51;462.10;;;177.80;;
8407;SDS011;4241;48.452;9.216;2023-05-07T13:52:18;457.20;;;169.57;;
8407;SDS011;4241;48.452;9.216;2023-05-07T13:54:45;456.33;;;168.07;;
8407;SDS011;4241;48.452;9.216;2023-05-07T13:57:12;453.53;;;165.47;;
8407;SDS011;4241;48.452;9.216;2023-05-07T13:59:39;456.83;;;170.40;;
8407;SDS011;4241;48.452;9.216;2023-05-07T14:02:06;458.47;;;173.33;;
8407;SDS011;4241;48.452;9.216;2023-05-07T14:04:34;454.43;;;165.40;;
8407;SDS011;4241;48.452;9.216;2023-05-07T14:07:02;456.23;;;168.40;;
8407;SDS011;4241;48.452;9.216;2023-05-07T14:09:29;458.23;;;169.53;;
8407;SDS011;4241;48.452;9.216;2023-05-07T14:11:56;455.50;;;166.53;;
8407;SDS011;4241;48.452;9.216;2023-05-07T14:14:23;454.87;;;165.43;;
8407;SDS011;4241;48.452;9.216;2023-05-07T14:16:50;453.90;;;163.97;;
8407;SDS011;4241;48.452;9.216;2023-05-07T14:19:17;458.77;;;169.00;;
8407;SDS011;4241;48.452;9.216;2023-05-07T14:21:44;453.60;;;163.17;;
8407;SDS011;4241;48.452;9.216;2023-05-07T14:24:12;454.53;;;166.67;;
8407;SDS011;4241;48.452;9.216;2023-05-07T14:26:40;453.13;;;164.13;;
8407;SDS011;4241;48.452;9.216;2023-05-07T14:29:06;455.37;;;168.20;;
8407;SDS011;4241;48.452;9.216;2023-05-07T14:31:33;456.73;;;170.23;;
8407;SDS011;4241;48.452;9.216;2023-05-07T14:34:00;457.00;;;170.17;;
8407;SDS011;4241;48.452;9.216;2023-05-07T14:36:27;454.30;;;167.17;;
8407;SDS011;4241;48.452;9.216;2023-05-07T14:38:56;454.27;;;165.07;;
8407;SDS011;4241;48.452;9.216;2023-05-07T14:41:25;454.47;;;168.50;;
8407;SDS011;4241;48.452;9.216;2023-05-07T14:43:52;457.23;;;172.47;;